sensor_id;sensor_type;location;lat;lon;timestamp;temperature;humidity
16666;DHT22;8446;50.998;6.250;2023-10-19T00:02:06;11.40;99.90
16666;DHT22;8446;50.998;6.250;2023-10-19T00:04:33;11.40;99.90
16666;DHT22;8446;50.998;6.250;2023-10-19T00:07:01;11.40;99.90
16666;DHT22;8446;50.998;6.250;2023-10-19T00:09:32;11.40;99.90
16666;DHT22;8446;50.998;6.250;2023-10-19T00:12:03;11.40;99.90
16666;DHT22;8446;50.998;6.250;2023-10-19T00:14:30;11.40;99.90
16666;DHT22;8446;50.998;6.250;2023-10-19T00:16:58;11.50;99.90
16666;DHT22;8446;50.998;6.250;2023-10-19T00:19:27;11.50;99.90
16666;DHT22;8446;50.998;6.250;2023-10-19T00:21:54;11.50;99.90
16666;DHT22;8446;50.998;6.250;2023-10-19T00:24:21;11.50;99.90
16666;DHT22;8446;50.998;6.250;2023-10-19T00:26:49;11.50;99.90
16666;DHT22;8446;50.998;6.250;2023-10-19T00:29:19;11.60;99.90
16666;DHT22;8446;50.998;6.250;2023-10-19T00:31:57;11.60;99.90
16666;DHT22;8446;50.998;6.250;2023-10-19T00:34:25;11.60;99.90
16666;DHT22;8446;50.998;6.250;2023-10-19T00:36:53;11.60;99.90
16666;DHT22;8446;50.998;6.250;2023-10-19T00:39:21;11.60;99.90
16666;DHT22;8446;50.998;6.250;2023-10-19T00:41:49;11.60;99.90
16666;DHT22;8446;50.998;6.250;2023-10-19T00:44:19;11.60;99.90
16666;DHT22;8446;50.998;6.250;2023-10-19T00:46:54;11.60;99.90
16666;DHT22;8446;50.998;6.250;2023-10-19T00:49:28;11.60;99.90
16666;DHT22;8446;50.998;6.250;2023-10-19T00:51:58;11.50;99.90
16666;DHT22;8446;50.998;6.250;2023-10-19T00:54:30;11.50;99.90
16666;DHT22;8446;50.998;6.250;2023-10-19T00:56:59;11.50;99.90
16666;DHT22;8446;50.998;6.250;2023-10-19T00:59:31;11.40;99.90
16666;DHT22;8446;50.998;6.250;2023-10-19T01:02:01;11.40;99.90
16666;DHT22;8446;50.998;6.250;2023-10-19T01:04:42;11.40;99.90
16666;DHT22;8446;50.998;6.250;2023-10-19T01:07:11;11.40;99.90
16666;DHT22;8446;50.998;6.250;2023-10-19T01:09:42;11.40;99.90
16666;DHT22;8446;50.998;6.250;2023-10-19T01:12:10;11.40;99.90
16666;DHT22;8446;50.998;6.250;2023-10-19T01:15:08;11.50;99.90
16666;DHT22;8446;50.998;6.250;2023-10-19T01:17:44;11.50;99.90
16666;DHT22;8446;50.998;6.250;2023-10-19T01:20:13;11.50;99.90
16666;DHT22;8446;50.998;6.250;2023-10-19T01:23:05;11.40;99.90
16666;DHT22;8446;50.998;6.250;2023-10-19T01:25:47;11.90;99.90
16666;DHT22;8446;50.998;6.250;2023-10-19T01:28:26;12.40;99.90
16666;DHT22;8446;50.998;6.250;2023-10-19T01:31:07;13.00;99.90
16666;DHT22;8446;50.998;6.250;2023-10-19T01:33:34;13.40;99.90
16666;DHT22;8446;50.998;6.250;2023-10-19T01:36:01;13.90;99.90
16666;DHT22;8446;50.998;6.250;2023-10-19T01:38:38;14.10;99.90
16666;DHT22;8446;50.998;6.250;2023-10-19T01:41:05;14.30;99.90
16666;DHT22;8446;50.998;6.250;2023-10-19T01:43:39;14.50;99.90
16666;DHT22;8446;50.998;6.250;2023-10-19T01:46:07;14.60;99.90
16666;DHT22;8446;50.998;6.250;2023-10-19T01:48:38;14.70;99.90
16666;DHT22;8446;50.998;6.250;2023-10-19T01:51:06;14.80;99.90
16666;DHT22;8446;50.998;6.250;2023-10-19T01:53:38;14.80;99.90
16666;DHT22;8446;50.998;6.250;2023-10-19T01:56:08;14.60;99.90
16666;DHT22;8446;50.998;6.250;2023-10-19T01:58:35;14.70;99.90
16666;DHT22;8446;50.998;6.250;2023-10-19T02:01:03;14.80;99.90
16666;DHT22;8446;50.998;6.250;2023-10-19T02:03:34;14.70;99.90
16666;DHT22;8446;50.998;6.250;2023-10-19T02:06:02;14.70;99.90
16666;DHT22;8446;50.998;6.250;2023-10-19T02:08:38;14.70;99.90
16666;DHT22;8446;50.998;6.250;2023-10-19T02:11:05;14.70;99.90
16666;DHT22;8446;50.998;6.250;2023-10-19T02:13:39;14.60;99.90
16666;DHT22;8446;50.998;6.250;2023-10-19T02:16:06;14.70;99.90
16666;DHT22;8446;50.998;6.250;2023-10-19T02:18:33;14.70;99.90
16666;DHT22;8446;50.998;6.250;2023-10-19T02:21:01;14.80;99.90
16666;DHT22;8446;50.998;6.250;2023-10-19T02:23:32;14.80;99.90
16666;DHT22;8446;50.998;6.250;2023-10-19T02:26:02;14.90;99.90
16666;DHT22;8446;50.998;6.250;2023-10-19T02:28:29;14.90;99.90
16666;DHT22;8446;50.998;6.250;2023-10-19T02:30:58;15.00;99.90
16666;DHT22;8446;50.998;6.250;2023-10-19T02:33:36;15.00;99.90
16666;DHT22;8446;50.998;6.250;2023-10-19T02:36:04;15.00;99.90
16666;DHT22;8446;50.998;6.250;2023-10-19T02:38:30;15.00;99.90
16666;DHT22;8446;50.998;6.250;2023-10-19T02:40:58;14.90;99.90
16666;DHT22;8446;50.998;6.250;2023-10-19T02:43:25;14.90;99.90
16666;DHT22;8446;50.998;6.250;2023-10-19T02:45:52;14.80;99.90
16666;DHT22;8446;50.998;6.250;2023-10-19T02:48:19;14.70;99.90
16666;DHT22;8446;50.998;6.250;2023-10-19T02:50:45;14.60;99.90
16666;DHT22;8446;50.998;6.250;2023-10-19T02:53:12;14.60;99.90
16666;DHT22;8446;50.998;6.250;2023-10-19T02:55:39;14.70;99.90
16666;DHT22;8446;50.998;6.250;2023-10-19T02:58:06;14.60;99.90
16666;DHT22;8446;50.998;6.250;2023-10-19T03:00:36;14.50;99.90
16666;DHT22;8446;50.998;6.250;2023-10-19T03:03:03;14.50;99.90
16666;DHT22;8446;50.998;6.250;2023-10-19T03:05:30;14.40;99.90
16666;DHT22;8446;50.998;6.250;2023-10-19T03:07:59;14.40;99.90
16666;DHT22;8446;50.998;6.250;2023-10-19T03:10:25;14.30;99.90
16666;DHT22;8446;50.998;6.250;2023-10-19T03:13:00;14.30;99.90
16666;DHT22;8446;50.998;6.250;2023-10-19T03:15:26;14.30;99.90
16666;DHT22;8446;50.998;6.250;2023-10-19T03:17:57;14.30;99.90
16666;DHT22;8446;50.998;6.250;2023-10-19T03:20:23;14.30;99.90
16666;DHT22;8446;50.998;6.250;2023-10-19T03:22:51;14.40;99.90
16666;DHT22;8446;50.998;6.250;2023-10-19T03:25:17;14.30;99.90
16666;DHT22;8446;50.998;6.250;2023-10-19T03:28:02;14.30;99.90
16666;DHT22;8446;50.998;6.250;2023-10-19T03:30:36;14.30;99.90
16666;DHT22;8446;50.998;6.250;2023-10-19T03:33:06;14.10;99.90
16666;DHT22;8446;50.998;6.250;2023-10-19T03:35:35;14.10;99.90
16666;DHT22;8446;50.998;6.250;2023-10-19T03:38:03;14.00;99.90
16666;DHT22;8446;50.998;6.250;2023-10-19T03:40:33;13.90;99.90
16666;DHT22;8446;50.998;6.250;2023-10-19T03:43:04;13.80;99.90
16666;DHT22;8446;50.998;6.250;2023-10-19T03:45:43;13.80;99.90
16666;DHT22;8446;50.998;6.250;2023-10-19T03:48:17;13.80;99.90
16666;DHT22;8446;50.998;6.250;2023-10-19T03:50:50;13.90;99.90
16666;DHT22;8446;50.998;6.250;2023-10-19T03:53:19;14.00;99.90
16666;DHT22;8446;50.998;6.250;2023-10-19T03:55:47;14.30;99.90
16666;DHT22;8446;50.998;6.250;2023-10-19T03:58:15;14.20;99.90
16666;DHT22;8446;50.998;6.250;2023-10-19T04:00:42;14.20;99.90
16666;DHT22;8446;50.998;6.250;2023-10-19T04:03:10;14.30;99.90
16666;DHT22;8446;50.998;6.250;2023-10-19T04:05:38;14.40;99.90
16666;DHT22;8446;50.998;6.250;2023-10-19T04:08:06;14.50;99.90
16666;DHT22;8446;50.998;6.250;2023-10-19T04:10:40;14.40;99.90
16666;DHT22;8446;50.998;6.250;2023-10-19T04:13:13;14.30;99.90
16666;DHT22;8446;50.998;6.250;2023-10-19T04:15:40;14.30;99.90
16666;DHT22;8446;50.998;6.250;2023-10-19T04:18:07;14.30;99.90
16666;DHT22;8446;50.998;6.250;2023-10-19T04:20:38;14.40;99.90
16666;DHT22;8446;50.998;6.250;2023-10-19T04:23:24;14.40;99.90
16666;DHT22;8446;50.998;6.250;2023-10-19T04:25:54;14.40;99.90
16666;DHT22;8446;50.998;6.250;2023-10-19T04:28:24;14.50;99.90
16666;DHT22;8446;50.998;6.250;2023-10-19T04:30:59;14.40;99.90
16666;DHT22;8446;50.998;6.250;2023-10-19T04:33:29;14.40;99.90
16666;DHT22;8446;50.998;6.250;2023-10-19T04:35:57;14.30;99.90
16666;DHT22;8446;50.998;6.250;2023-10-19T04:38:26;14.30;99.90
16666;DHT22;8446;50.998;6.250;2023-10-19T04:40:52;14.30;99.90
16666;DHT22;8446;50.998;6.250;2023-10-19T04:43:20;14.30;99.90
16666;DHT22;8446;50.998;6.250;2023-10-19T04:45:47;14.20;99.90
16666;DHT22;8446;50.998;6.250;2023-10-19T04:48:13;14.20;99.90
16666;DHT22;8446;50.998;6.250;2023-10-19T04:50:40;14.10;99.90
16666;DHT22;8446;50.998;6.250;2023-10-19T04:53:08;14.10;99.90
16666;DHT22;8446;50.998;6.250;2023-10-19T04:55:35;14.00;99.90
16666;DHT22;8446;50.998;6.250;2023-10-19T04:58:03;13.90;99.90
16666;DHT22;8446;50.998;6.250;2023-10-19T05:00:31;13.80;99.90
16666;DHT22;8446;50.998;6.250;2023-10-19T05:02:58;13.80;99.90
16666;DHT22;8446;50.998;6.250;2023-10-19T05:05:27;13.70;99.90
16666;DHT22;8446;50.998;6.250;2023-10-19T05:07:53;13.70;99.90
16666;DHT22;8446;50.998;6.250;2023-10-19T05:10:22;13.60;99.90
16666;DHT22;8446;50.998;6.250;2023-10-19T05:12:49;13.60;99.90
16666;DHT22;8446;50.998;6.250;2023-10-19T05:15:16;13.60;99.90
16666;DHT22;8446;50.998;6.250;2023-10-19T05:17:44;13.60;99.90
16666;DHT22;8446;50.998;6.250;2023-10-19T05:20:11;13.60;99.90
16666;DHT22;8446;50.998;6.250;2023-10-19T05:22:38;13.60;99.90
16666;DHT22;8446;50.998;6.250;2023-10-19T05:25:05;13.60;99.90
16666;DHT22;8446;50.998;6.250;2023-10-19T05:27:34;13.70;99.90
16666;DHT22;8446;50.998;6.250;2023-10-19T05:30:01;13.60;99.90
16666;DHT22;8446;50.998;6.250;2023-10-19T05:32:29;13.60;99.90
16666;DHT22;8446;50.998;6.250;2023-10-19T05:34:56;13.50;99.90
16666;DHT22;8446;50.998;6.250;2023-10-19T05:37:23;13.50;99.90
16666;DHT22;8446;50.998;6.250;2023-10-19T05:39:51;13.50;99.90
16666;DHT22;8446;50.998;6.250;2023-10-19T05:42:18;13.40;99.90
16666;DHT22;8446;50.998;6.250;2023-10-19T05:44:46;13.40;99.90
16666;DHT22;8446;50.998;6.250;2023-10-19T05:47:12;13.40;99.90
16666;DHT22;8446;50.998;6.250;2023-10-19T05:49:39;13.40;99.90
16666;DHT22;8446;50.998;6.250;2023-10-19T05:52:06;13.40;99.90
16666;DHT22;8446;50.998;6.250;2023-10-19T05:54:33;13.30;99.90
16666;DHT22;8446;50.998;6.250;2023-10-19T05:57:00;13.20;99.90
16666;DHT22;8446;50.998;6.250;2023-10-19T05:59:26;13.20;99.90
16666;DHT22;8446;50.998;6.250;2023-10-19T06:01:57;13.10;99.90
16666;DHT22;8446;50.998;6.250;2023-10-19T06:04:23;13.00;99.90
16666;DHT22;8446;50.998;6.250;2023-10-19T06:06:50;13.00;99.90
16666;DHT22;8446;50.998;6.250;2023-10-19T06:09:17;13.00;99.90
16666;DHT22;8446;50.998;6.250;2023-10-19T06:11:45;12.90;99.90
16666;DHT22;8446;50.998;6.250;2023-10-19T06:14:11;12.90;99.90
16666;DHT22;8446;50.998;6.250;2023-10-19T06:16:39;12.90;99.90
16666;DHT22;8446;50.998;6.250;2023-10-19T06:19:07;12.80;99.90
16666;DHT22;8446;50.998;6.250;2023-10-19T06:21:34;12.80;99.90
16666;DHT22;8446;50.998;6.250;2023-10-19T06:24:01;12.80;99.90
16666;DHT22;8446;50.998;6.250;2023-10-19T06:26:28;12.80;99.90
16666;DHT22;8446;50.998;6.250;2023-10-19T06:28:55;12.80;99.90
16666;DHT22;8446;50.998;6.250;2023-10-19T06:31:24;12.80;99.90
16666;DHT22;8446;50.998;6.250;2023-10-19T06:33:51;12.80;99.90
16666;DHT22;8446;50.998;6.250;2023-10-19T06:36:20;12.90;99.90
16666;DHT22;8446;50.998;6.250;2023-10-19T06:38:46;12.90;99.90
16666;DHT22;8446;50.998;6.250;2023-10-19T06:41:16;12.90;99.90
16666;DHT22;8446;50.998;6.250;2023-10-19T06:43:44;13.00;99.90
16666;DHT22;8446;50.998;6.250;2023-10-19T06:46:12;13.00;99.90
16666;DHT22;8446;50.998;6.250;2023-10-19T06:48:40;13.00;99.90
16666;DHT22;8446;50.998;6.250;2023-10-19T06:51:07;13.00;99.90
16666;DHT22;8446;50.998;6.250;2023-10-19T06:53:36;13.10;99.90
16666;DHT22;8446;50.998;6.250;2023-10-19T06:56:03;13.20;99.90
16666;DHT22;8446;50.998;6.250;2023-10-19T06:58:30;13.20;99.90
16666;DHT22;8446;50.998;6.250;2023-10-19T07:00:57;13.30;99.90
16666;DHT22;8446;50.998;6.250;2023-10-19T07:03:25;13.30;99.90
16666;DHT22;8446;50.998;6.250;2023-10-19T07:05:54;13.20;99.90
16666;DHT22;8446;50.998;6.250;2023-10-19T07:08:22;13.20;99.90
16666;DHT22;8446;50.998;6.250;2023-10-19T07:10:50;13.20;99.90
16666;DHT22;8446;50.998;6.250;2023-10-19T07:13:17;13.20;99.90
16666;DHT22;8446;50.998;6.250;2023-10-19T07:15:47;13.30;99.90
16666;DHT22;8446;50.998;6.250;2023-10-19T07:18:14;13.40;99.90
16666;DHT22;8446;50.998;6.250;2023-10-19T07:20:41;13.40;99.90
16666;DHT22;8446;50.998;6.250;2023-10-19T07:23:09;13.40;99.90
16666;DHT22;8446;50.998;6.250;2023-10-19T07:25:44;13.40;99.90
16666;DHT22;8446;50.998;6.250;2023-10-19T07:28:13;13.50;99.90
16666;DHT22;8446;50.998;6.250;2023-10-19T07:30:41;13.50;99.90
16666;DHT22;8446;50.998;6.250;2023-10-19T07:33:08;13.70;99.90
16666;DHT22;8446;50.998;6.250;2023-10-19T07:35:36;13.80;99.90
16666;DHT22;8446;50.998;6.250;2023-10-19T07:38:05;13.90;99.90
16666;DHT22;8446;50.998;6.250;2023-10-19T07:40:33;13.90;99.90
16666;DHT22;8446;50.998;6.250;2023-10-19T07:43:00;14.00;99.90
16666;DHT22;8446;50.998;6.250;2023-10-19T07:45:30;14.00;99.90
16666;DHT22;8446;50.998;6.250;2023-10-19T07:47:58;14.10;99.90
16666;DHT22;8446;50.998;6.250;2023-10-19T07:50:31;14.20;99.90
16666;DHT22;8446;50.998;6.250;2023-10-19T07:52:58;14.20;99.90
16666;DHT22;8446;50.998;6.250;2023-10-19T07:55:25;14.30;99.90
16666;DHT22;8446;50.998;6.250;2023-10-19T07:57:52;14.40;99.90
16666;DHT22;8446;50.998;6.250;2023-10-19T08:00:20;14.40;99.90
16666;DHT22;8446;50.998;6.250;2023-10-19T08:02:50;14.50;99.90
16666;DHT22;8446;50.998;6.250;2023-10-19T08:05:19;14.60;99.90
16666;DHT22;8446;50.998;6.250;2023-10-19T08:07:46;14.60;99.90
16666;DHT22;8446;50.998;6.250;2023-10-19T08:10:14;14.60;99.90
16666;DHT22;8446;50.998;6.250;2023-10-19T08:12:43;14.60;99.90
16666;DHT22;8446;50.998;6.250;2023-10-19T08:15:11;14.70;99.90
16666;DHT22;8446;50.998;6.250;2023-10-19T08:17:39;14.70;99.90
16666;DHT22;8446;50.998;6.250;2023-10-19T08:20:09;14.70;99.90
16666;DHT22;8446;50.998;6.250;2023-10-19T08:22:41;14.90;99.90
16666;DHT22;8446;50.998;6.250;2023-10-19T08:25:09;14.90;99.90
16666;DHT22;8446;50.998;6.250;2023-10-19T08:27:38;15.10;99.90
16666;DHT22;8446;50.998;6.250;2023-10-19T08:30:07;15.30;99.90
16666;DHT22;8446;50.998;6.250;2023-10-19T08:32:35;15.40;99.90
16666;DHT22;8446;50.998;6.250;2023-10-19T08:35:02;15.60;99.90
16666;DHT22;8446;50.998;6.250;2023-10-19T08:37:31;15.70;99.90
16666;DHT22;8446;50.998;6.250;2023-10-19T08:39:59;15.80;99.90
16666;DHT22;8446;50.998;6.250;2023-10-19T08:42:26;16.00;99.90
16666;DHT22;8446;50.998;6.250;2023-10-19T08:44:56;16.10;99.90
16666;DHT22;8446;50.998;6.250;2023-10-19T08:47:24;16.30;99.90
16666;DHT22;8446;50.998;6.250;2023-10-19T08:49:52;16.50;99.90
16666;DHT22;8446;50.998;6.250;2023-10-19T08:52:21;16.50;99.90
16666;DHT22;8446;50.998;6.250;2023-10-19T08:54:50;16.60;99.90
16666;DHT22;8446;50.998;6.250;2023-10-19T08:57:17;16.70;99.90
16666;DHT22;8446;50.998;6.250;2023-10-19T08:59:44;16.90;99.90
16666;DHT22;8446;50.998;6.250;2023-10-19T09:02:12;16.90;99.90
16666;DHT22;8446;50.998;6.250;2023-10-19T09:04:43;16.80;99.90
16666;DHT22;8446;50.998;6.250;2023-10-19T09:07:10;16.90;99.90
16666;DHT22;8446;50.998;6.250;2023-10-19T09:09:37;17.10;99.90
16666;DHT22;8446;50.998;6.250;2023-10-19T09:12:07;17.30;99.90
16666;DHT22;8446;50.998;6.250;2023-10-19T09:14:36;17.30;99.90
16666;DHT22;8446;50.998;6.250;2023-10-19T09:17:07;17.30;99.90
16666;DHT22;8446;50.998;6.250;2023-10-19T09:19:38;17.50;99.90
16666;DHT22;8446;50.998;6.250;2023-10-19T09:22:06;17.70;99.90
16666;DHT22;8446;50.998;6.250;2023-10-19T09:24:42;17.80;99.90
16666;DHT22;8446;50.998;6.250;2023-10-19T09:27:12;17.80;99.90
16666;DHT22;8446;50.998;6.250;2023-10-19T09:29:39;18.00;99.90
16666;DHT22;8446;50.998;6.250;2023-10-19T09:32:07;18.10;99.90
16666;DHT22;8446;50.998;6.250;2023-10-19T09:34:35;18.20;99.90
16666;DHT22;8446;50.998;6.250;2023-10-19T09:37:03;18.20;99.90
16666;DHT22;8446;50.998;6.250;2023-10-19T09:39:30;18.10;99.90
16666;DHT22;8446;50.998;6.250;2023-10-19T09:42:02;18.10;99.90
16666;DHT22;8446;50.998;6.250;2023-10-19T09:44:34;18.10;99.90
16666;DHT22;8446;50.998;6.250;2023-10-19T09:47:06;17.90;99.90
16666;DHT22;8446;50.998;6.250;2023-10-19T09:49:36;18.00;99.90
16666;DHT22;8446;50.998;6.250;2023-10-19T09:52:03;18.00;99.90
16666;DHT22;8446;50.998;6.250;2023-10-19T09:54:37;17.90;99.90
16666;DHT22;8446;50.998;6.250;2023-10-19T09:57:13;17.90;99.90
16666;DHT22;8446;50.998;6.250;2023-10-19T09:59:45;17.80;99.90
16666;DHT22;8446;50.998;6.250;2023-10-19T10:02:14;17.80;99.90
16666;DHT22;8446;50.998;6.250;2023-10-19T10:04:43;17.80;99.90
16666;DHT22;8446;50.998;6.250;2023-10-19T10:07:11;17.80;99.90
16666;DHT22;8446;50.998;6.250;2023-10-19T10:09:39;17.90;99.90
16666;DHT22;8446;50.998;6.250;2023-10-19T10:12:19;18.10;99.90
16666;DHT22;8446;50.998;6.250;2023-10-19T10:14:59;18.30;99.90
16666;DHT22;8446;50.998;6.250;2023-10-19T10:17:28;18.70;99.90
16666;DHT22;8446;50.998;6.250;2023-10-19T10:20:06;18.80;99.90
16666;DHT22;8446;50.998;6.250;2023-10-19T10:23:17;19.00;99.90
16666;DHT22;8446;50.998;6.250;2023-10-19T10:25:46;19.00;99.90
16666;DHT22;8446;50.998;6.250;2023-10-19T10:28:14;19.00;99.90
16666;DHT22;8446;50.998;6.250;2023-10-19T10:31:13;18.90;99.90
16666;DHT22;8446;50.998;6.250;2023-10-19T10:33:42;18.90;99.90
16666;DHT22;8446;50.998;6.250;2023-10-19T10:36:10;18.90;99.90
16666;DHT22;8446;50.998;6.250;2023-10-19T10:38:37;18.60;99.90
16666;DHT22;8446;50.998;6.250;2023-10-19T10:41:04;18.50;99.90
16666;DHT22;8446;50.998;6.250;2023-10-19T10:43:48;18.40;99.90
16666;DHT22;8446;50.998;6.250;2023-10-19T10:46:17;18.30;99.90
16666;DHT22;8446;50.998;6.250;2023-10-19T10:48:44;18.30;99.90
16666;DHT22;8446;50.998;6.250;2023-10-19T10:51:21;18.20;99.90
16666;DHT22;8446;50.998;6.250;2023-10-19T10:53:49;18.20;99.90
16666;DHT22;8446;50.998;6.250;2023-10-19T10:56:17;18.20;99.90
16666;DHT22;8446;50.998;6.250;2023-10-19T10:58:44;18.20;99.90
16666;DHT22;8446;50.998;6.250;2023-10-19T11:01:11;18.30;99.90
16666;DHT22;8446;50.998;6.250;2023-10-19T11:03:40;18.40;99.90
16666;DHT22;8446;50.998;6.250;2023-10-19T11:06:09;18.50;99.90
16666;DHT22;8446;50.998;6.250;2023-10-19T11:08:37;18.60;99.90
16666;DHT22;8446;50.998;6.250;2023-10-19T11:11:06;18.70;99.90
16666;DHT22;8446;50.998;6.250;2023-10-19T11:13:33;18.80;99.90
16666;DHT22;8446;50.998;6.250;2023-10-19T11:16:03;18.90;99.90
16666;DHT22;8446;50.998;6.250;2023-10-19T11:18:32;18.90;99.90
16666;DHT22;8446;50.998;6.250;2023-10-19T11:21:03;18.80;99.90
16666;DHT22;8446;50.998;6.250;2023-10-19T11:23:36;18.90;99.90
16666;DHT22;8446;50.998;6.250;2023-10-19T11:26:02;18.90;99.90
16666;DHT22;8446;50.998;6.250;2023-10-19T11:28:31;18.80;99.90
16666;DHT22;8446;50.998;6.250;2023-10-19T11:31:11;18.80;99.90
16666;DHT22;8446;50.998;6.250;2023-10-19T11:33:38;18.80;99.90
16666;DHT22;8446;50.998;6.250;2023-10-19T11:36:07;18.70;99.90
16666;DHT22;8446;50.998;6.250;2023-10-19T11:38:33;18.60;99.90
16666;DHT22;8446;50.998;6.250;2023-10-19T11:41:01;18.60;99.90
16666;DHT22;8446;50.998;6.250;2023-10-19T11:43:28;18.60;99.90
16666;DHT22;8446;50.998;6.250;2023-10-19T11:45:56;18.50;99.90
16666;DHT22;8446;50.998;6.250;2023-10-19T11:48:22;18.50;99.90
16666;DHT22;8446;50.998;6.250;2023-10-19T11:50:49;18.50;99.90
16666;DHT22;8446;50.998;6.250;2023-10-19T11:53:17;18.40;99.90
16666;DHT22;8446;50.998;6.250;2023-10-19T11:55:44;18.40;99.90
16666;DHT22;8446;50.998;6.250;2023-10-19T11:58:13;18.40;99.90
16666;DHT22;8446;50.998;6.250;2023-10-19T12:00:40;18.40;99.90
16666;DHT22;8446;50.998;6.250;2023-10-19T12:03:09;18.30;99.90
16666;DHT22;8446;50.998;6.250;2023-10-19T12:05:37;18.30;99.90
16666;DHT22;8446;50.998;6.250;2023-10-19T12:08:05;18.30;99.90
16666;DHT22;8446;50.998;6.250;2023-10-19T12:10:33;18.30;99.90
16666;DHT22;8446;50.998;6.250;2023-10-19T12:13:02;18.20;99.90
16666;DHT22;8446;50.998;6.250;2023-10-19T12:15:30;18.20;99.90
16666;DHT22;8446;50.998;6.250;2023-10-19T12:17:58;18.30;99.90
16666;DHT22;8446;50.998;6.250;2023-10-19T12:20:25;18.20;99.90
16666;DHT22;8446;50.998;6.250;2023-10-19T12:22:52;18.20;99.90
16666;DHT22;8446;50.998;6.250;2023-10-19T12:25:19;18.30;99.90
16666;DHT22;8446;50.998;6.250;2023-10-19T12:27:48;18.30;99.90
16666;DHT22;8446;50.998;6.250;2023-10-19T12:30:15;18.20;99.90
16666;DHT22;8446;50.998;6.250;2023-10-19T12:32:46;18.20;99.90
16666;DHT22;8446;50.998;6.250;2023-10-19T12:35:15;18.10;99.90
16666;DHT22;8446;50.998;6.250;2023-10-19T12:37:45;18.10;99.90
16666;DHT22;8446;50.998;6.250;2023-10-19T12:40:16;18.10;99.90
16666;DHT22;8446;50.998;6.250;2023-10-19T12:42:58;18.00;99.90
16666;DHT22;8446;50.998;6.250;2023-10-19T12:45:28;17.90;99.90
16666;DHT22;8446;50.998;6.250;2023-10-19T12:48:02;17.90;99.90
16666;DHT22;8446;50.998;6.250;2023-10-19T12:50:30;17.90;99.90
16666;DHT22;8446;50.998;6.250;2023-10-19T12:52:57;17.80;99.90
16666;DHT22;8446;50.998;6.250;2023-10-19T12:55:24;17.80;99.90
16666;DHT22;8446;50.998;6.250;2023-10-19T12:57:52;17.80;99.90
16666;DHT22;8446;50.998;6.250;2023-10-19T13:00:20;17.80;99.90
16666;DHT22;8446;50.998;6.250;2023-10-19T13:02:51;17.80;99.90
16666;DHT22;8446;50.998;6.250;2023-10-19T13:05:25;17.70;99.90
16666;DHT22;8446;50.998;6.250;2023-10-19T13:07:52;17.70;99.90
16666;DHT22;8446;50.998;6.250;2023-10-19T13:10:27;17.70;99.90
16666;DHT22;8446;50.998;6.250;2023-10-19T13:12:54;17.60;99.90
16666;DHT22;8446;50.998;6.250;2023-10-19T13:15:22;17.60;99.90
16666;DHT22;8446;50.998;6.250;2023-10-19T13:17:53;17.50;99.90
16666;DHT22;8446;50.998;6.250;2023-10-19T13:20:20;17.50;99.90
16666;DHT22;8446;50.998;6.250;2023-10-19T13:22:48;17.50;99.90
16666;DHT22;8446;50.998;6.250;2023-10-19T13:25:15;17.40;99.90
16666;DHT22;8446;50.998;6.250;2023-10-19T13:27:43;17.40;99.90
16666;DHT22;8446;50.998;6.250;2023-10-19T13:30:12;17.40;99.90
16666;DHT22;8446;50.998;6.250;2023-10-19T13:32:41;17.30;99.90
16666;DHT22;8446;50.998;6.250;2023-10-19T13:35:08;17.30;99.90
16666;DHT22;8446;50.998;6.250;2023-10-19T13:37:35;17.20;99.90
16666;DHT22;8446;50.998;6.250;2023-10-19T13:40:03;17.10;99.90
16666;DHT22;8446;50.998;6.250;2023-10-19T13:42:32;17.00;99.90
16666;DHT22;8446;50.998;6.250;2023-10-19T13:45:00;17.00;99.90
16666;DHT22;8446;50.998;6.250;2023-10-19T13:47:27;16.90;99.90
16666;DHT22;8446;50.998;6.250;2023-10-19T13:49:55;16.90;99.90
16666;DHT22;8446;50.998;6.250;2023-10-19T13:52:22;16.80;99.90
16666;DHT22;8446;50.998;6.250;2023-10-19T13:54:49;16.80;99.90
16666;DHT22;8446;50.998;6.250;2023-10-19T13:57:15;16.80;99.90
16666;DHT22;8446;50.998;6.250;2023-10-19T13:59:42;16.80;99.90
16666;DHT22;8446;50.998;6.250;2023-10-19T14:02:09;16.80;99.90
16666;DHT22;8446;50.998;6.250;2023-10-19T14:04:36;16.80;99.90
16666;DHT22;8446;50.998;6.250;2023-10-19T14:07:04;16.80;99.90
16666;DHT22;8446;50.998;6.250;2023-10-19T14:09:31;16.80;99.90
16666;DHT22;8446;50.998;6.250;2023-10-19T14:11:59;16.80;99.90
16666;DHT22;8446;50.998;6.250;2023-10-19T14:14:27;16.80;99.90
16666;DHT22;8446;50.998;6.250;2023-10-19T14:16:54;16.80;99.90
16666;DHT22;8446;50.998;6.250;2023-10-19T14:19:21;16.80;99.90
16666;DHT22;8446;50.998;6.250;2023-10-19T14:21:48;16.80;99.90
16666;DHT22;8446;50.998;6.250;2023-10-19T14:24:17;16.90;99.90
16666;DHT22;8446;50.998;6.250;2023-10-19T14:26:46;16.90;99.90
16666;DHT22;8446;50.998;6.250;2023-10-19T14:29:13;16.90;99.90
16666;DHT22;8446;50.998;6.250;2023-10-19T14:31:40;16.90;99.90
16666;DHT22;8446;50.998;6.250;2023-10-19T14:34:07;16.90;99.90
16666;DHT22;8446;50.998;6.250;2023-10-19T14:36:34;17.00;99.90
16666;DHT22;8446;50.998;6.250;2023-10-19T14:39:01;17.00;99.90
16666;DHT22;8446;50.998;6.250;2023-10-19T14:41:30;17.00;99.90
16666;DHT22;8446;50.998;6.250;2023-10-19T14:43:58;17.00;99.90
16666;DHT22;8446;50.998;6.250;2023-10-19T14:46:28;17.10;99.90
16666;DHT22;8446;50.998;6.250;2023-10-19T14:48:56;17.10;99.90
16666;DHT22;8446;50.998;6.250;2023-10-19T14:51:22;17.10;99.90
16666;DHT22;8446;50.998;6.250;2023-10-19T14:53:50;17.10;99.90
16666;DHT22;8446;50.998;6.250;2023-10-19T14:56:16;17.20;99.90
16666;DHT22;8446;50.998;6.250;2023-10-19T14:58:44;17.00;99.90
16666;DHT22;8446;50.998;6.250;2023-10-19T15:01:11;17.00;99.90
16666;DHT22;8446;50.998;6.250;2023-10-19T15:03:42;17.00;99.90
16666;DHT22;8446;50.998;6.250;2023-10-19T15:06:09;16.90;99.90
16666;DHT22;8446;50.998;6.250;2023-10-19T15:08:36;16.90;99.90
16666;DHT22;8446;50.998;6.250;2023-10-19T15:11:03;16.90;99.90
16666;DHT22;8446;50.998;6.250;2023-10-19T15:13:30;16.90;99.90
16666;DHT22;8446;50.998;6.250;2023-10-19T15:16:07;16.90;99.90
16666;DHT22;8446;50.998;6.250;2023-10-19T15:18:34;16.90;99.90
16666;DHT22;8446;50.998;6.250;2023-10-19T15:21:06;16.90;99.90
16666;DHT22;8446;50.998;6.250;2023-10-19T15:23:34;17.00;99.90
16666;DHT22;8446;50.998;6.250;2023-10-19T15:26:00;17.20;99.90
16666;DHT22;8446;50.998;6.250;2023-10-19T15:28:27;17.40;99.90
16666;DHT22;8446;50.998;6.250;2023-10-19T15:30:59;17.50;99.90
16666;DHT22;8446;50.998;6.250;2023-10-19T15:33:26;17.70;99.90
16666;DHT22;8446;50.998;6.250;2023-10-19T15:35:54;17.70;99.90
16666;DHT22;8446;50.998;6.250;2023-10-19T15:38:21;17.80;99.90
16666;DHT22;8446;50.998;6.250;2023-10-19T15:40:48;17.80;99.90
16666;DHT22;8446;50.998;6.250;2023-10-19T15:43:16;17.90;99.90
16666;DHT22;8446;50.998;6.250;2023-10-19T15:45:43;17.90;99.90
16666;DHT22;8446;50.998;6.250;2023-10-19T15:48:12;18.00;99.90
16666;DHT22;8446;50.998;6.250;2023-10-19T15:50:39;18.00;99.90
16666;DHT22;8446;50.998;6.250;2023-10-19T15:53:06;17.90;99.90
16666;DHT22;8446;50.998;6.250;2023-10-19T15:55:33;17.70;99.90
16666;DHT22;8446;50.998;6.250;2023-10-19T15:58:00;17.60;99.90